createdAt,value
2023-01-25T00:04:34.462Z,8.21
2023-01-25T00:11:25.605Z,8.19
2023-01-25T00:23:10.815Z,8.13
2023-01-25T00:26:17.801Z,7.56
2023-01-25T00:29:13.529Z,7.89
2023-01-25T00:32:32.033Z,7.88
2023-01-25T00:36:24.083Z,8.05
2023-01-25T00:39:20.979Z,8.29
2023-01-25T00:42:26.342Z,8.29
2023-01-25T00:58:14.300Z,8.58
2023-01-25T01:02:40.840Z,8.31
2023-01-25T01:10:57.243Z,8.46
2023-01-25T01:15:24.851Z,8.51
2023-01-25T01:19:17.686Z,8.50
2023-01-25T01:22:23.985Z,8.50
2023-01-25T01:41:49.901Z,8.63
2023-01-25T01:45:35.915Z,8.83
2023-01-25T01:48:12.630Z,8.75
2023-01-25T01:50:45.906Z,8.87
2023-01-25T01:53:20.348Z,8.81
2023-01-25T01:55:53.847Z,8.66
2023-01-25T01:58:26.221Z,9.09
2023-01-25T02:01:02.775Z,8.89
2023-01-25T02:03:37.681Z,9.18
2023-01-25T02:06:24.190Z,9.24
2023-01-25T02:08:56.044Z,8.89
2023-01-25T02:11:33.600Z,8.82
2023-01-25T02:14:08.864Z,8.64
2023-01-25T02:16:43.942Z,8.91
2023-01-25T02:19:33.225Z,9.50
2023-01-25T02:22:13.438Z,9.00
2023-01-25T02:31:05.199Z,9.02
2023-01-25T02:33:51.748Z,9.32
2023-01-25T02:36:29.665Z,9.38
2023-01-25T02:39:19.086Z,9.62
2023-01-25T02:42:02.985Z,9.21
2023-01-25T02:44:38.273Z,9.13
2023-01-25T02:47:21.951Z,8.98
2023-01-25T02:49:53.216Z,9.24
2023-01-25T02:52:37.726Z,9.24
2023-01-25T02:55:11.852Z,9.04
2023-01-25T02:57:48.859Z,8.83
2023-01-25T03:00:24.611Z,9.40
2023-01-25T03:02:55.167Z,8.93
2023-01-25T03:05:36.780Z,9.42
2023-01-25T03:08:11.533Z,9.54
2023-01-25T03:10:44.735Z,9.07
2023-01-25T03:13:14.267Z,9.62
2023-01-25T03:15:45.640Z,9.20
2023-01-25T03:18:19.046Z,9.67
2023-01-25T03:20:52.917Z,9.63
2023-01-25T03:23:23.078Z,9.79
2023-01-25T03:25:53.495Z,9.65
2023-01-25T03:28:24.669Z,9.34
2023-01-25T03:31:03.841Z,9.80
2023-01-25T03:33:36.013Z,9.53
2023-01-25T03:36:09.916Z,9.31
2023-01-25T03:38:43.923Z,9.47
2023-01-25T03:41:15.893Z,9.92
2023-01-25T03:43:49.877Z,9.38
2023-01-25T03:46:21.200Z,9.40
2023-01-25T03:48:53.768Z,9.84
2023-01-25T03:51:25.624Z,9.27
2023-01-25T03:54:03.679Z,9.37
2023-01-25T03:56:39.296Z,9.30
2023-01-25T03:59:34.177Z,9.40
2023-01-25T04:02:11.991Z,9.78
2023-01-25T04:04:44.191Z,9.36
2023-01-25T04:07:17.819Z,9.57
2023-01-25T04:09:49.959Z,9.33
2023-01-25T04:12:21.862Z,9.75
2023-01-25T04:14:53.945Z,9.32
2023-01-25T04:17:33.634Z,9.59
2023-01-25T04:20:12.083Z,9.67
2023-01-25T04:22:43.986Z,9.91
2023-01-25T04:25:13.667Z,10.09
2023-01-25T04:27:53.696Z,9.55
2023-01-25T04:30:24.799Z,9.59
2023-01-25T04:32:54.436Z,9.60
2023-01-25T04:35:33.630Z,9.85
2023-01-25T04:38:06.094Z,9.90
2023-01-25T04:40:44.956Z,9.85
2023-01-25T04:43:19.157Z,9.56
2023-01-25T04:45:51.776Z,9.57
2023-01-25T04:48:35.312Z,10.10
2023-01-25T04:51:10.294Z,10.12
2023-01-25T04:53:41.719Z,9.98
2023-01-25T04:56:11.920Z,9.90
2023-01-25T04:58:51.065Z,9.82
2023-01-25T05:01:21.251Z,9.98
2023-01-25T05:03:52.684Z,9.70
2023-01-25T05:06:37.811Z,9.49
2023-01-25T05:09:11.902Z,9.55
2023-01-25T05:11:46.102Z,9.66
2023-01-25T05:14:32.015Z,9.38
2023-01-25T05:17:04.007Z,9.98
2023-01-25T05:19:35.901Z,9.74
2023-01-25T05:22:16.513Z,10.14
2023-01-25T05:24:52.290Z,9.72
2023-01-25T05:27:23.951Z,9.79
2023-01-25T05:30:04.395Z,9.59
2023-01-25T05:32:54.042Z,9.91
2023-01-25T05:35:33.714Z,9.71
2023-01-25T05:38:05.585Z,9.74
2023-01-25T05:40:40.601Z,9.56
2023-01-25T05:43:12.177Z,9.68
2023-01-25T05:45:44.026Z,10.35
2023-01-25T05:48:16.201Z,10.32
2023-01-25T05:50:48.976Z,10.10
2023-01-25T05:53:28.452Z,10.39
2023-01-25T05:56:09.287Z,10.13
2023-01-25T05:58:41.266Z,9.89
2023-01-25T06:01:11.021Z,9.78
2023-01-25T06:03:51.159Z,10.12
2023-01-25T06:06:21.731Z,10.21
2023-01-25T06:08:53.261Z,10.22
2023-01-25T06:11:26.243Z,10.05
2023-01-25T06:14:04.212Z,10.33
2023-01-25T06:16:37.485Z,10.02
2023-01-25T06:19:28.063Z,10.11
2023-01-25T06:22:18.078Z,10.10
2023-01-25T06:24:50.160Z,10.08
2023-01-25T06:27:22.206Z,10.23
2023-01-25T06:29:53.698Z,10.20
2023-01-25T06:32:26.237Z,10.38
2023-01-25T06:35:01.206Z,9.99
2023-01-25T06:37:33.032Z,10.06
2023-01-25T06:40:03.787Z,9.99
2023-01-25T06:42:34.247Z,10.20
2023-01-25T06:45:05.141Z,10.17
2023-01-25T06:47:34.311Z,10.26
2023-01-25T06:50:05.212Z,10.17
2023-01-25T06:52:37.564Z,10.21
2023-01-25T06:55:14.634Z,10.08
2023-01-25T06:57:45.890Z,10.09
2023-01-25T07:00:18.040Z,10.03
2023-01-25T07:02:50.224Z,10.31
2023-01-25T07:05:20.010Z,9.86
2023-01-25T07:07:49.116Z,9.86
2023-01-25T07:10:18.120Z,10.22
2023-01-25T07:12:49.444Z,9.84
2023-01-25T07:15:20.250Z,10.25
2023-01-25T07:17:49.592Z,10.06
2023-01-25T07:20:20.302Z,9.76
2023-01-25T07:22:49.804Z,10.14
2023-01-25T07:25:20.409Z,10.31
2023-01-25T07:27:49.926Z,10.34
2023-01-25T07:30:22.236Z,10.18
2023-01-25T07:32:52.792Z,10.38
2023-01-25T07:35:22.366Z,10.30
2023-01-25T07:37:52.690Z,10.30
2023-01-25T07:40:30.309Z,10.22
2023-01-25T07:43:03.869Z,10.66
2023-01-25T07:45:36.690Z,10.25
2023-01-25T07:48:13.386Z,10.53
2023-01-25T07:50:43.802Z,10.39
2023-01-25T07:53:14.744Z,10.42
2023-01-25T07:55:47.879Z,10.32
2023-01-25T07:58:18.041Z,10.46
2023-01-25T08:00:50.027Z,10.30
2023-01-25T08:03:23.269Z,9.99
2023-01-25T08:06:10.102Z,10.39
2023-01-25T08:09:14.053Z,10.29
2023-01-25T08:11:50.041Z,10.24
2023-01-25T08:14:33.257Z,10.07
2023-01-25T08:17:07.041Z,9.94
2023-01-25T08:19:37.967Z,10.39
2023-01-25T08:22:11.743Z,10.14
2023-01-25T08:24:46.035Z,10.19
2023-01-25T08:27:18.503Z,10.07
2023-01-25T08:29:51.987Z,10.43
2023-01-25T08:32:22.620Z,9.90
2023-01-25T08:34:53.245Z,10.14
2023-01-25T08:37:23.968Z,10.57
2023-01-25T08:39:53.849Z,10.56
2023-01-25T08:42:32.943Z,10.12
2023-01-25T08:45:04.427Z,10.48
2023-01-25T08:47:34.386Z,9.83
2023-01-25T08:50:05.698Z,9.71
2023-01-25T08:52:36.952Z,9.87
2023-01-25T08:55:08.425Z,9.70
2023-01-25T08:57:38.565Z,9.62
2023-01-25T09:00:13.809Z,9.49
2023-01-25T09:02:44.594Z,9.39
2023-01-25T09:05:15.031Z,9.72
2023-01-25T09:07:46.045Z,9.67
2023-01-25T09:10:20.222Z,9.59
2023-01-25T09:12:50.348Z,9.29
2023-01-25T09:15:22.123Z,9.48
2023-01-25T09:17:53.748Z,9.88
2023-01-25T09:20:26.056Z,10.17
2023-01-25T09:23:05.783Z,9.90
2023-01-25T09:25:38.291Z,9.49
2023-01-25T09:28:13.377Z,9.31
2023-01-25T09:30:48.416Z,9.59
2023-01-25T09:33:37.933Z,9.98
2023-01-25T09:36:09.612Z,9.78
2023-01-25T09:38:41.893Z,10.33
2023-01-25T09:41:48.364Z,10.35
2023-01-25T09:44:33.361Z,10.40
2023-01-25T09:47:26.753Z,10.09
2023-01-25T09:50:25.737Z,10.51
2023-01-25T09:53:25.692Z,10.42
2023-01-25T09:56:05.630Z,10.66
2023-01-25T09:58:48.035Z,10.69
2023-01-25T10:01:54.275Z,10.62
2023-01-25T10:04:32.992Z,10.04
2023-01-25T10:07:32.554Z,10.45
2023-01-25T10:10:37.329Z,10.36
2023-01-25T10:13:13.945Z,10.29
2023-01-25T10:15:52.473Z,10.66
2023-01-25T10:18:53.671Z,10.93
2023-01-25T10:21:49.364Z,11.03
2023-01-25T10:24:53.500Z,10.69
2023-01-25T10:27:47.498Z,10.61
2023-01-25T10:30:44.627Z,11.01
2023-01-25T10:33:24.942Z,11.25
2023-01-25T10:42:05.206Z,10.82
2023-01-25T10:44:54.206Z,10.93
2023-01-25T10:48:22.875Z,10.52
2023-01-25T10:54:30.420Z,10.54
2023-01-25T10:57:09.291Z,10.79
2023-01-25T10:59:45.086Z,10.40
2023-01-25T11:03:14.806Z,10.44
2023-01-25T11:06:14.637Z,10.69
2023-01-25T11:09:25.912Z,10.26
2023-01-25T11:12:20.507Z,10.39
2023-01-25T11:14:53.435Z,10.26
2023-01-25T11:17:42.247Z,10.56
2023-01-25T11:20:24.387Z,10.67
2023-01-25T11:23:04.490Z,9.85
2023-01-25T11:28:44.843Z,9.46
2023-01-25T11:31:25.224Z,9.53
2023-01-25T11:33:54.639Z,9.33
2023-01-25T11:37:13.111Z,9.18
2023-01-25T11:40:38.529Z,9.66
2023-01-25T11:44:02.567Z,9.11
2023-01-25T11:47:28.777Z,9.49
2023-01-25T11:50:22.504Z,9.38
2023-01-25T11:53:46.770Z,9.26
2023-01-25T11:57:25.685Z,9.33
2023-01-25T12:01:13.941Z,9.21
2023-01-25T12:04:50.242Z,9.99
2023-01-25T12:08:01.381Z,9.67
2023-01-25T12:11:13.345Z,10.17
2023-01-25T12:14:38.160Z,10.30
2023-01-25T12:18:07.129Z,10.19
2023-01-25T12:25:14.201Z,10.59
2023-01-25T12:28:10.628Z,9.97
2023-01-25T12:36:22.952Z,10.39
2023-01-25T12:40:08.096Z,10.12
2023-01-25T12:43:37.669Z,10.61
2023-01-25T12:47:20.969Z,10.26
2023-01-25T12:55:09.185Z,10.10
2023-01-25T12:58:44.454Z,10.57
2023-01-25T13:07:18.227Z,9.94
2023-01-25T13:31:09.255Z,10.27
2023-01-25T13:34:49.523Z,10.47
2023-01-25T13:42:49.819Z,9.24
2023-01-25T13:46:10.579Z,9.24
2023-01-25T13:49:48.529Z,8.99
2023-01-25T13:54:07.739Z,9.40
2023-01-25T14:01:24.951Z,9.56
2023-01-25T14:04:21.975Z,9.62
2023-01-25T14:07:12.458Z,9.20
2023-01-25T14:10:52.304Z,9.56
2023-01-25T14:30:39.195Z,10.35
2023-01-25T14:42:00.818Z,9.33
2023-01-25T14:49:09.094Z,9.63
2023-01-25T14:51:52.558Z,9.96
2023-01-25T14:54:49.489Z,9.85
2023-01-25T15:03:08.607Z,9.27
2023-01-25T15:05:50.338Z,9.31
2023-01-25T15:08:52.154Z,9.12
2023-01-25T15:11:52.194Z,9.63
2023-01-25T15:15:17.204Z,9.41
2023-01-25T15:19:09.873Z,9.24
2023-01-25T15:22:03.563Z,10.15
2023-01-25T15:28:43.935Z,10.58
2023-01-25T15:31:41.422Z,10.77
2023-01-25T15:34:40.611Z,10.15
2023-01-25T15:37:22.280Z,10.27
2023-01-25T15:40:06.437Z,10.05
2023-01-25T15:43:25.751Z,9.41
2023-01-25T15:50:13.647Z,9.74
2023-01-25T15:53:06.345Z,9.31
2023-01-25T15:56:51.040Z,9.19
2023-01-25T16:00:04.772Z,9.54
2023-01-25T16:02:45.875Z,9.86
2023-01-25T16:06:23.031Z,9.92
2023-01-25T16:15:51.070Z,10.10
2023-01-25T17:07:18.382Z,9.92
2023-01-25T17:26:23.188Z,10.49
2023-01-25T17:45:49.259Z,9.64
2023-01-25T17:49:34.439Z,10.08
2023-01-25T17:57:44.677Z,10.14
2023-01-25T18:02:00.424Z,10.08
2023-01-25T18:04:54.232Z,10.22
2023-01-25T18:07:26.510Z,10.51
2023-01-25T18:10:04.324Z,10.67
2023-01-25T18:12:52.999Z,10.81
2023-01-25T18:15:46.493Z,10.67
2023-01-25T18:18:35.693Z,10.85
2023-01-25T18:21:38.860Z,10.15
2023-01-25T18:24:34.168Z,10.55
2023-01-25T18:27:19.155Z,10.71
2023-01-25T18:30:09.009Z,10.85
2023-01-25T18:32:50.067Z,10.71
2023-01-25T18:35:38.643Z,10.93
2023-01-25T18:38:14.333Z,10.50
2023-01-25T18:41:05.381Z,10.97
2023-01-25T18:43:42.471Z,11.58
2023-01-25T18:46:54.764Z,11.49
2023-01-25T18:49:50.053Z,11.84
2023-01-25T18:52:25.110Z,11.34
2023-01-25T18:55:02.585Z,10.63
2023-01-25T19:01:06.123Z,10.68
2023-01-25T19:03:41.465Z,10.88
2023-01-25T19:06:13.003Z,10.65
2023-01-25T19:08:50.306Z,11.30
2023-01-25T19:11:20.867Z,10.89
2023-01-25T19:13:51.253Z,10.96
2023-01-25T19:16:25.041Z,10.62
2023-01-25T19:18:55.928Z,11.71
2023-01-25T19:21:29.145Z,11.90
2023-01-25T19:24:00.706Z,11.92
2023-01-25T19:26:41.445Z,12.63
2023-01-25T19:29:11.278Z,12.13
2023-01-25T19:31:49.281Z,12.96
2023-01-25T19:34:18.065Z,12.29
2023-01-25T19:36:50.657Z,12.24
2023-01-25T19:39:21.027Z,11.94
2023-01-25T19:41:53.850Z,12.45
2023-01-25T19:44:24.841Z,12.05
2023-01-25T19:46:54.677Z,11.27
2023-01-25T19:49:24.761Z,12.17
2023-01-25T19:51:56.112Z,12.36
2023-01-25T19:54:27.047Z,12.15
2023-01-25T19:56:57.884Z,12.34
2023-01-25T19:59:33.797Z,12.57
2023-01-25T20:02:06.155Z,12.24
2023-01-25T20:04:38.720Z,12.84
2023-01-25T20:07:10.317Z,12.76
2023-01-25T20:09:45.737Z,12.87
2023-01-25T20:12:17.313Z,12.70
2023-01-25T20:14:48.191Z,12.33
2023-01-25T20:17:18.766Z,12.29
2023-01-25T20:19:48.723Z,12.21
2023-01-25T20:22:17.718Z,12.09
2023-01-25T20:24:46.864Z,12.11
2023-01-25T20:27:16.131Z,12.57
2023-01-25T20:29:45.275Z,12.19
2023-01-25T20:32:30.606Z,12.60
2023-01-25T20:35:04.302Z,12.07
2023-01-25T20:37:33.651Z,12.50
2023-01-25T20:40:03.316Z,12.71
2023-01-25T20:42:32.993Z,12.39
2023-01-25T20:45:02.321Z,12.59
2023-01-25T20:47:31.118Z,12.24
2023-01-25T20:50:01.264Z,12.84
2023-01-25T20:52:31.071Z,12.57
2023-01-25T20:55:00.537Z,12.56
2023-01-25T20:57:30.415Z,12.76
2023-01-25T20:59:59.843Z,12.58
2023-01-25T21:02:29.654Z,12.14
2023-01-25T21:05:00.307Z,12.51
2023-01-25T21:07:30.169Z,12.50
2023-01-25T21:09:59.599Z,12.16
2023-01-25T21:12:29.176Z,12.40
2023-01-25T21:14:59.638Z,12.35
2023-01-25T21:17:30.066Z,12.11
2023-01-25T21:20:00.572Z,12.61
2023-01-25T21:22:32.023Z,12.62
2023-01-25T21:25:01.844Z,12.86
2023-01-25T21:27:33.808Z,12.50
2023-01-25T21:30:16.954Z,12.76
2023-01-25T21:32:47.924Z,12.43
2023-01-25T21:35:17.163Z,12.28
2023-01-25T21:37:46.869Z,12.62
2023-01-25T21:40:16.958Z,12.54
2023-01-25T21:42:45.739Z,12.66
2023-01-25T21:45:36.802Z,12.77
2023-01-25T21:48:42.033Z,11.84
2023-01-25T21:51:33.663Z,11.57
2023-01-25T21:54:05.917Z,11.41
2023-01-25T21:56:35.329Z,11.51
2023-01-25T21:59:04.395Z,11.13
2023-01-25T22:01:34.260Z,11.19
2023-01-25T22:04:05.771Z,11.18
2023-01-25T22:06:40.916Z,11.77
2023-01-25T22:09:13.861Z,12.32
2023-01-25T22:11:54.338Z,12.63
2023-01-25T22:14:40.618Z,12.65
2023-01-25T22:17:19.084Z,12.99
2023-01-25T22:19:49.260Z,11.48
2023-01-25T22:22:20.304Z,11.62
2023-01-25T22:24:50.004Z,11.07
2023-01-25T22:27:33.740Z,11.57
2023-01-25T22:30:04.206Z,11.83
2023-01-25T22:32:34.179Z,12.29
2023-01-25T22:35:04.419Z,12.31
2023-01-25T22:38:34.173Z,11.84
2023-01-25T22:41:37.115Z,12.08
2023-01-25T22:47:26.963Z,11.46
2023-01-25T22:50:18.826Z,11.16
2023-01-25T22:52:52.316Z,11.40
2023-01-25T22:55:21.735Z,11.48
2023-01-25T22:57:54.563Z,11.37
2023-01-25T23:00:36.149Z,11.20
2023-01-25T23:03:12.778Z,10.88
2023-01-25T23:05:45.577Z,10.94
2023-01-25T23:08:17.595Z,10.81
2023-01-25T23:10:47.607Z,11.14
2023-01-25T23:13:18.936Z,11.44
2023-01-25T23:15:48.828Z,11.06
2023-01-25T23:18:38.034Z,11.39
2023-01-25T23:21:10.873Z,10.93
2023-01-25T23:23:42.218Z,11.31
2023-01-25T23:26:12.168Z,11.53
2023-01-25T23:28:46.434Z,10.98
2023-01-25T23:31:18.637Z,11.38
2023-01-25T23:33:55.095Z,11.64
2023-01-25T23:36:36.702Z,11.37
2023-01-25T23:39:06.913Z,11.35
2023-01-25T23:42:15.792Z,11.22
2023-01-25T23:44:52.075Z,11.30
2023-01-25T23:47:20.796Z,11.10
2023-01-25T23:49:50.241Z,11.35
2023-01-25T23:52:20.165Z,11.31
2023-01-25T23:54:50.062Z,12.08
2023-01-25T23:57:20.363Z,11.39
2023-01-25T23:59:50.264Z,11.34
